createdAt,value
2017-06-03T00:01:02.765Z,22.80
2017-06-03T00:03:30.362Z,23.58
2017-06-03T00:05:57.953Z,24.52
2017-06-03T00:08:25.591Z,25.25
2017-06-03T00:10:53.185Z,24.90
2017-06-03T00:13:21.490Z,24.08
2017-06-03T00:15:49.086Z,26.77
2017-06-03T00:18:16.681Z,26.85
2017-06-03T00:20:44.790Z,26.60
2017-06-03T00:23:12.385Z,24.20
2017-06-03T00:25:39.983Z,25.88
2017-06-03T00:28:07.929Z,25.10
2017-06-03T00:30:35.538Z,24.45
2017-06-03T00:33:03.290Z,25.75
2017-06-03T00:35:35.909Z,26.98
2017-06-03T00:38:03.505Z,27.30
2017-06-03T00:40:31.106Z,25.37
2017-06-03T00:42:59.065Z,27.10
2017-06-03T00:45:27.425Z,26.70
2017-06-03T00:47:55.026Z,26.55
2017-06-03T00:50:22.666Z,28.85
2017-06-03T00:52:54.972Z,28.10
2017-06-03T00:55:22.568Z,26.67
2017-06-03T00:57:50.173Z,27.20
2017-06-03T01:00:17.946Z,27.05
2017-06-03T01:02:45.540Z,27.27
2017-06-03T01:05:13.173Z,25.62
2017-06-03T01:07:40.764Z,26.77
2017-06-03T01:10:08.685Z,27.33
2017-06-03T01:12:36.282Z,27.00
2017-06-03T01:15:03.877Z,26.62
2017-06-03T01:17:31.523Z,25.10
2017-06-03T01:19:59.112Z,25.37
2017-06-03T01:22:26.870Z,24.30
2017-06-03T01:24:54.465Z,24.15
2017-06-03T01:27:22.428Z,24.58
2017-06-03T01:29:50.028Z,24.20
2017-06-03T01:32:17.914Z,24.37
2017-06-03T01:34:45.929Z,24.98
2017-06-03T01:37:13.533Z,23.90
2017-06-03T01:39:41.129Z,25.12
2017-06-03T01:42:08.841Z,23.92
2017-06-03T01:44:36.437Z,24.80
2017-06-03T01:47:07.678Z,23.40
2017-06-03T01:49:35.362Z,25.05
2017-06-03T01:52:02.958Z,28.70
2017-06-03T01:54:30.554Z,24.80
2017-06-03T01:56:58.225Z,25.65
2017-06-03T01:59:25.817Z,25.85
2017-06-03T02:01:53.418Z,25.73
2017-06-03T02:04:21.490Z,28.12
2017-06-03T02:06:49.085Z,32.78
2017-06-03T02:09:16.633Z,25.17
2017-06-03T02:11:44.270Z,25.05
2017-06-03T02:14:11.864Z,25.42
2017-06-03T02:16:39.873Z,24.80
2017-06-03T02:19:07.471Z,26.50
2017-06-03T02:21:35.067Z,24.65
2017-06-03T02:24:07.231Z,25.52
2017-06-03T02:26:34.782Z,26.95
2017-06-03T02:29:02.420Z,25.65
2017-06-03T02:31:30.023Z,25.90
2017-06-03T02:33:57.759Z,26.37
2017-06-03T02:36:25.338Z,25.45
2017-06-03T02:38:52.927Z,26.00
2017-06-03T02:41:21.558Z,25.45
2017-06-03T02:43:49.146Z,26.85
2017-06-03T02:46:16.746Z,26.35
2017-06-03T02:48:44.382Z,24.58
2017-06-03T02:51:12.754Z,25.42
2017-06-03T02:53:40.933Z,24.52
2017-06-03T02:56:08.477Z,25.37
2017-06-03T02:58:36.021Z,26.48
2017-06-03T03:01:03.670Z,26.83
2017-06-03T03:03:31.217Z,24.20
2017-06-03T03:05:58.860Z,24.20
2017-06-03T03:08:26.487Z,24.85
2017-06-03T03:10:54.075Z,25.27
2017-06-03T03:13:22.394Z,24.65
2017-06-03T03:15:50.124Z,24.08
2017-06-03T03:18:17.677Z,24.58
2017-06-03T03:20:45.229Z,24.42
2017-06-03T03:23:12.901Z,23.50
2017-06-03T03:25:41.097Z,26.73
2017-06-03T03:28:08.686Z,26.25
2017-06-03T03:30:36.237Z,24.83
2017-06-03T03:33:04.110Z,27.37
2017-06-03T03:35:31.698Z,25.42
2017-06-03T03:37:59.308Z,25.00
2017-06-03T03:40:26.970Z,24.65
2017-06-03T03:42:54.560Z,25.50
2017-06-03T03:45:22.162Z,26.25
2017-06-03T03:47:49.817Z,26.60
2017-06-03T03:50:17.415Z,25.80
2017-06-03T03:52:45.021Z,26.40
2017-06-03T03:55:13.603Z,27.48
2017-06-03T03:57:41.197Z,29.85
2017-06-03T04:00:09.326Z,28.95
2017-06-03T04:02:36.877Z,30.48
2017-06-03T04:05:04.513Z,31.58
2017-06-03T04:07:32.106Z,31.05
2017-06-03T04:10:00.138Z,30.62
2017-06-03T04:12:27.741Z,29.40
2017-06-03T04:14:55.341Z,27.58
2017-06-03T04:17:24.046Z,29.00
2017-06-03T04:19:51.601Z,30.95
2017-06-03T04:22:20.829Z,30.27
2017-06-03T04:24:48.421Z,30.10
2017-06-03T04:27:16.014Z,28.67
2017-06-03T04:29:48.711Z,29.25
2017-06-03T04:32:16.311Z,28.52
2017-06-03T04:34:43.863Z,28.90
2017-06-03T04:37:11.723Z,28.73
2017-06-03T04:39:39.283Z,28.67
2017-06-03T04:42:06.924Z,29.33
2017-06-03T04:44:34.525Z,28.83
2017-06-03T04:47:02.165Z,30.33
2017-06-03T04:49:29.712Z,28.67
2017-06-03T04:51:57.357Z,28.98
2017-06-03T04:54:25.121Z,28.98
2017-06-03T04:56:57.818Z,29.92
2017-06-03T04:59:25.373Z,27.75
2017-06-03T05:01:53.683Z,27.52
2017-06-03T05:04:21.265Z,28.62
2017-06-03T05:06:48.897Z,29.70
2017-06-03T05:09:16.545Z,28.85
2017-06-03T05:11:44.093Z,29.77
2017-06-03T05:14:12.533Z,30.27
2017-06-03T05:16:40.082Z,29.60
2017-06-03T05:19:11.338Z,30.05
2017-06-03T05:21:38.882Z,30.55
2017-06-03T05:24:06.970Z,27.85
2017-06-03T05:26:34.561Z,28.77
2017-06-03T05:29:02.998Z,28.62
2017-06-03T05:31:30.790Z,30.42
2017-06-03T05:33:58.434Z,30.98
2017-06-03T05:36:25.979Z,32.05
2017-06-03T05:38:53.571Z,32.47
2017-06-03T05:41:21.290Z,30.25
2017-06-03T05:43:48.885Z,31.62
2017-06-03T05:46:16.493Z,31.58
2017-06-03T05:48:44.850Z,31.10
2017-06-03T05:51:12.582Z,31.55
2017-06-03T05:53:40.133Z,31.77
2017-06-03T05:56:08.010Z,31.35
2017-06-03T05:58:36.098Z,30.77
2017-06-03T06:01:03.694Z,30.00
2017-06-03T06:03:31.769Z,30.62
2017-06-03T06:05:59.321Z,31.00
2017-06-03T06:08:27.635Z,31.15
2017-06-03T06:10:55.343Z,30.75
2017-06-03T06:13:22.951Z,31.67
2017-06-03T06:15:50.501Z,32.58
2017-06-03T06:18:18.102Z,31.62
2017-06-03T06:20:45.647Z,32.80
2017-06-03T06:23:13.289Z,32.22
2017-06-03T06:25:41.407Z,31.35
2017-06-03T06:28:09.005Z,32.30
2017-06-03T06:30:37.321Z,31.80
2017-06-03T06:33:05.053Z,31.42
2017-06-03T06:35:32.653Z,32.03
2017-06-03T06:38:00.270Z,32.88
2017-06-03T06:40:28.630Z,31.95
2017-06-03T06:42:56.189Z,32.80
2017-06-03T06:45:23.924Z,31.83
2017-06-03T06:47:51.516Z,32.70
2017-06-03T06:50:19.882Z,32.35
2017-06-03T06:52:47.642Z,31.40
2017-06-03T06:55:15.421Z,31.25
2017-06-03T06:57:49.469Z,31.15
2017-06-03T07:00:25.364Z,30.20
2017-06-03T07:02:57.734Z,32.20
2017-06-03T07:05:33.970Z,34.08
2017-06-03T07:08:08.550Z,32.40
2017-06-03T07:10:44.361Z,34.13
2017-06-03T07:13:18.612Z,32.20
2017-06-03T07:15:56.035Z,31.83
2017-06-03T07:18:29.217Z,31.73
2017-06-03T07:21:03.954Z,32.97
2017-06-03T07:23:38.769Z,32.38
2017-06-03T07:26:14.766Z,29.95
2017-06-03T07:28:49.378Z,30.83
2017-06-03T07:31:31.870Z,32.30
2017-06-03T07:34:00.378Z,34.03
2017-06-03T07:36:35.733Z,32.22
2017-06-03T07:39:11.586Z,31.10
2017-06-03T07:41:46.037Z,33.13
2017-06-03T07:44:21.294Z,33.00
2017-06-03T07:46:56.263Z,33.47
2017-06-03T07:49:32.075Z,34.67
2017-06-03T07:52:05.426Z,32.85
2017-06-03T07:54:41.102Z,31.50
2017-06-03T07:57:15.804Z,32.78
2017-06-03T07:59:53.845Z,35.57
2017-06-03T08:02:28.493Z,34.30
2017-06-03T08:05:01.453Z,33.60
2017-06-03T08:07:36.248Z,33.80
2017-06-03T08:10:11.345Z,31.77
2017-06-03T08:12:45.305Z,31.97
2017-06-03T08:15:20.464Z,36.80
2017-06-03T08:18:02.923Z,32.73
2017-06-03T08:20:47.332Z,33.23
2017-06-03T08:23:25.291Z,35.83
2017-06-03T08:25:53.295Z,34.77
2017-06-03T08:28:20.868Z,35.30
2017-06-03T08:30:55.714Z,33.70
2017-06-03T08:33:30.231Z,35.30
2017-06-03T08:36:03.772Z,34.77
2017-06-03T08:38:44.106Z,36.33
2017-06-03T08:41:21.989Z,33.17
2017-06-03T08:43:53.162Z,33.30
2017-06-03T08:46:38.018Z,34.27
2017-06-03T08:49:14.331Z,31.50
2017-06-03T08:51:41.944Z,32.10
2017-06-03T08:54:10.623Z,31.27
2017-06-03T08:56:50.928Z,31.63
2017-06-03T08:59:19.166Z,32.03
2017-06-03T09:01:57.090Z,32.47
2017-06-03T09:04:30.013Z,32.70
2017-06-03T09:07:12.856Z,32.27
2017-06-03T09:09:48.837Z,30.80
2017-06-03T09:12:23.944Z,29.40
2017-06-03T09:14:59.767Z,28.97
2017-06-03T09:17:54.110Z,32.07
2017-06-03T09:23:15.241Z,29.73
2017-06-03T09:25:42.814Z,27.67
2017-06-03T09:28:16.786Z,26.60
2017-06-03T09:30:53.385Z,29.20
2017-06-03T09:33:25.903Z,26.73
2017-06-03T09:36:02.822Z,27.60
2017-06-03T09:38:36.926Z,25.00
2017-06-03T09:41:12.401Z,26.53
2017-06-03T09:43:46.390Z,28.03
2017-06-03T09:46:23.790Z,29.20
2017-06-03T09:48:59.224Z,26.10
2017-06-03T09:51:34.090Z,31.37
2017-06-03T09:54:07.521Z,25.50
2017-06-03T09:56:43.175Z,24.73
2017-06-03T09:59:20.774Z,23.57
2017-06-03T10:01:55.490Z,36.03
2017-06-03T10:04:30.950Z,31.70
2017-06-03T10:07:12.245Z,31.63
2017-06-03T10:15:19.398Z,31.67
2017-06-03T10:17:56.778Z,33.10
2017-06-03T10:20:30.525Z,31.93
2017-06-03T10:26:10.402Z,30.00
2017-06-03T10:28:53.164Z,28.73
2017-06-03T10:31:20.851Z,27.00
2017-06-03T10:36:33.999Z,31.57
2017-06-03T10:39:06.314Z,34.03
2017-06-03T10:41:38.156Z,28.63
2017-06-03T10:44:20.898Z,32.47
2017-06-03T10:46:56.549Z,31.77
2017-06-03T10:49:26.979Z,36.27
2017-06-03T10:52:02.833Z,32.40
2017-06-03T10:54:37.387Z,31.10
2017-06-03T11:03:01.858Z,28.10
2017-06-03T11:05:29.478Z,26.90
2017-06-03T11:07:57.122Z,31.23
2017-06-03T11:10:24.739Z,32.30
2017-06-03T11:12:52.895Z,32.73
2017-06-03T11:15:20.511Z,36.53
2017-06-03T11:17:48.124Z,33.80
2017-06-03T11:20:16.914Z,30.50
2017-06-03T11:22:44.486Z,27.80
2017-06-03T11:25:12.858Z,30.67
2017-06-03T11:27:40.461Z,31.10
2017-06-03T11:30:08.117Z,31.60
2017-06-03T11:32:35.773Z,29.87
2017-06-03T11:35:03.448Z,28.80
2017-06-03T11:37:31.648Z,31.40
2017-06-03T11:39:59.261Z,34.13
2017-06-03T11:42:27.615Z,31.80
2017-06-03T11:44:55.579Z,32.27
2017-06-03T11:47:23.200Z,30.77
2017-06-03T11:49:50.806Z,35.90
2017-06-03T11:52:18.569Z,34.00
2017-06-03T11:54:46.166Z,30.97
2017-06-03T11:57:13.727Z,33.40
2017-06-03T11:59:41.712Z,37.90
2017-06-03T12:02:09.317Z,38.53
2017-06-03T12:04:36.873Z,35.90
2017-06-03T12:07:05.829Z,37.40
2017-06-03T12:09:33.392Z,39.07
2017-06-03T12:12:00.953Z,37.20
2017-06-03T12:14:28.892Z,35.47
2017-06-03T12:16:57.253Z,34.87
2017-06-03T12:19:24.877Z,32.87
2017-06-03T12:21:52.499Z,32.80
2017-06-03T12:24:20.857Z,31.43
2017-06-03T12:26:49.734Z,35.23
2017-06-03T12:29:17.285Z,31.57
2017-06-03T12:31:44.845Z,28.03
2017-06-03T12:34:12.566Z,30.43
2017-06-03T12:36:40.992Z,28.07
2017-06-03T12:39:08.604Z,26.13
2017-06-03T12:41:36.165Z,28.70
2017-06-03T12:44:04.235Z,30.30
2017-06-03T12:46:31.810Z,30.40
2017-06-03T12:48:59.861Z,27.17
2017-06-03T12:51:27.434Z,28.30
2017-06-03T12:53:55.000Z,20.77
2017-06-03T12:56:23.185Z,20.13
2017-06-03T12:58:50.774Z,22.03
2017-06-03T13:01:18.338Z,17.77
2017-06-03T13:03:46.364Z,16.03
2017-06-03T13:06:14.430Z,13.17
2017-06-03T13:08:42.043Z,13.50
2017-06-03T13:11:09.652Z,13.43
2017-06-03T13:13:37.406Z,13.03
2017-06-03T13:16:04.962Z,14.83
2017-06-03T13:18:32.509Z,16.27
2017-06-03T13:21:00.616Z,15.83
2017-06-03T13:23:28.171Z,17.37
2017-06-03T13:25:55.775Z,17.07
2017-06-03T13:28:23.554Z,16.97
2017-06-03T13:30:51.159Z,16.00
2017-06-03T13:33:19.230Z,17.00
2017-06-03T13:35:46.845Z,17.50
2017-06-03T13:38:18.789Z,16.63
2017-06-03T13:40:46.502Z,16.10
2017-06-03T13:43:14.827Z,14.40
2017-06-03T13:45:42.410Z,15.23
2017-06-03T13:48:09.967Z,13.50
2017-06-03T13:50:37.937Z,14.50
2017-06-03T13:53:05.528Z,12.47
2017-06-03T13:55:43.182Z,12.80
2017-06-03T13:58:10.838Z,11.40
2017-06-03T14:00:38.383Z,10.97
2017-06-03T14:03:06.029Z,11.50
2017-06-03T14:05:33.623Z,10.17
2017-06-03T14:08:01.225Z,9.73
2017-06-03T14:10:28.865Z,10.40
2017-06-03T14:12:56.462Z,9.00
2017-06-03T14:15:24.821Z,9.00
2017-06-03T14:17:52.579Z,10.20
2017-06-03T14:20:20.123Z,7.90
2017-06-03T14:22:47.694Z,6.97
2017-06-03T14:25:17.026Z,7.53
2017-06-03T14:27:44.662Z,7.20
2017-06-03T14:30:12.284Z,7.47
2017-06-03T14:32:40.154Z,8.10
2017-06-03T14:35:13.002Z,8.90
2017-06-03T14:37:41.697Z,8.97
2017-06-03T14:40:13.887Z,9.47
2017-06-03T14:42:43.186Z,8.10
2017-06-03T14:48:22.627Z,10.00
2017-06-03T14:50:51.934Z,9.27
2017-06-03T14:53:22.637Z,9.37
2017-06-03T14:55:53.439Z,8.23
2017-06-03T14:58:21.151Z,8.87
2017-06-03T15:00:48.764Z,7.90
2017-06-03T15:03:16.358Z,7.87
2017-06-03T15:05:43.920Z,7.30
2017-06-03T15:08:11.696Z,5.67
2017-06-03T15:10:39.327Z,5.67
2017-06-03T15:13:12.103Z,5.57
2017-06-03T15:15:39.651Z,5.70
2017-06-03T15:18:07.270Z,5.07
2017-06-03T15:20:35.006Z,5.50
2017-06-03T15:23:03.002Z,6.13
2017-06-03T15:25:30.654Z,6.40
2017-06-03T15:27:58.278Z,5.37
2017-06-03T15:30:26.434Z,6.27
2017-06-03T15:32:54.094Z,6.60
2017-06-03T15:35:21.678Z,6.77
2017-06-03T15:37:49.365Z,6.30
2017-06-03T15:40:18.301Z,9.50
2017-06-03T15:42:45.882Z,9.17
2017-06-03T15:45:13.460Z,7.60
2017-06-03T15:47:41.172Z,7.00
2017-06-03T15:50:09.532Z,6.47
2017-06-03T15:52:37.128Z,7.50
2017-06-03T15:55:04.674Z,7.60
2017-06-03T15:57:33.133Z,7.80
2017-06-03T16:00:00.678Z,7.13
2017-06-03T16:02:28.614Z,8.27
2017-06-03T16:04:56.202Z,7.20
2017-06-03T16:07:23.790Z,8.10
2017-06-03T16:09:52.198Z,8.13
2017-06-03T16:12:23.478Z,7.93
2017-06-03T16:14:52.001Z,9.70
2017-06-03T16:17:19.616Z,9.60
2017-06-03T16:20:07.135Z,10.90
2017-06-03T16:22:36.584Z,11.07
2017-06-03T16:25:04.191Z,11.47
2017-06-03T16:27:51.509Z,10.20
2017-06-03T16:30:33.677Z,10.90
2017-06-03T16:33:01.309Z,10.73
2017-06-03T16:35:36.373Z,13.57
2017-06-03T16:38:09.591Z,11.63
2017-06-03T16:40:47.525Z,12.17
2017-06-03T16:43:25.494Z,11.73
2017-06-03T16:45:53.069Z,12.00
2017-06-03T16:48:20.629Z,13.37
2017-06-03T16:51:03.690Z,14.77
2017-06-03T16:53:32.038Z,11.53
2017-06-03T16:55:59.669Z,10.40
2017-06-03T16:58:27.299Z,13.67
2017-06-03T17:00:54.887Z,13.00
2017-06-03T17:03:22.970Z,10.30
2017-06-03T17:06:07.342Z,12.13
2017-06-03T17:08:35.222Z,10.80
2017-06-03T17:11:02.784Z,12.00
2017-06-03T17:13:30.559Z,11.57
2017-06-03T17:16:05.816Z,11.30
2017-06-03T17:18:53.411Z,11.47
2017-06-03T17:24:21.016Z,14.83
2017-06-03T17:26:56.299Z,13.80
2017-06-03T17:29:23.950Z,15.03
2017-06-03T17:31:52.302Z,16.20
2017-06-03T17:34:19.921Z,14.90
2017-06-03T17:36:54.690Z,16.07
2017-06-03T17:39:22.322Z,17.30
2017-06-03T17:41:50.251Z,14.97
2017-06-03T17:44:23.939Z,16.33
2017-06-03T17:46:51.574Z,16.00
2017-06-03T17:49:19.906Z,16.73
2017-06-03T17:51:47.522Z,17.43
2017-06-03T17:54:15.901Z,18.10
2017-06-03T17:56:43.455Z,17.37
2017-06-03T17:59:11.361Z,18.37
2017-06-03T18:01:38.961Z,17.23
2017-06-03T18:04:26.302Z,17.67
2017-06-03T18:06:54.009Z,19.10
2017-06-03T18:09:21.565Z,18.20
2017-06-03T18:11:49.215Z,20.10
2017-06-03T18:14:16.795Z,18.13
2017-06-03T18:16:45.345Z,19.00
2017-06-03T18:19:16.747Z,21.60
2017-06-03T18:21:47.886Z,21.20
2017-06-03T18:24:18.768Z,20.07
2017-06-03T18:26:47.677Z,20.47
2017-06-03T18:29:15.333Z,20.13
2017-06-03T18:31:42.940Z,20.77
2017-06-03T18:34:10.881Z,22.87
2017-06-03T18:36:38.901Z,20.17
2017-06-03T18:39:06.458Z,22.20
2017-06-03T18:41:34.681Z,21.70
2017-06-03T18:44:02.303Z,22.70
2017-06-03T18:46:29.837Z,22.50
2017-06-03T18:48:58.206Z,23.53
2017-06-03T18:51:25.931Z,24.40
2017-06-03T18:53:53.560Z,23.53
2017-06-03T18:56:22.724Z,25.37
2017-06-03T18:58:53.456Z,26.27
2017-06-03T19:01:21.005Z,27.13
2017-06-03T19:03:56.470Z,24.73
2017-06-03T19:06:24.085Z,26.37
2017-06-03T19:08:51.854Z,27.47
2017-06-03T19:11:19.446Z,27.13
2017-06-03T19:13:47.166Z,29.47
2017-06-03T19:16:14.773Z,27.40
2017-06-03T19:18:42.426Z,26.90
2017-06-03T19:21:10.016Z,27.90
2017-06-03T19:23:38.339Z,27.03
2017-06-03T19:26:06.361Z,27.37
2017-06-03T19:28:34.680Z,29.03
2017-06-03T19:31:02.234Z,27.57
2017-06-03T19:33:30.045Z,28.17
2017-06-03T19:35:58.053Z,29.10
2017-06-03T19:38:25.808Z,31.63
2017-06-03T19:40:53.370Z,30.63
2017-06-03T19:43:21.899Z,27.57
2017-06-03T19:45:49.586Z,28.67
2017-06-03T19:48:17.156Z,29.07
2017-06-03T19:50:45.221Z,30.30
2017-06-03T19:53:12.812Z,31.97
2017-06-03T19:55:40.430Z,31.30
2017-06-03T19:58:08.054Z,30.07
2017-06-03T20:00:35.677Z,31.70
2017-06-03T20:03:06.874Z,32.20
2017-06-03T20:05:34.477Z,30.37
2017-06-03T20:13:48.055Z,28.33
2017-06-03T20:16:15.803Z,28.40
2017-06-03T20:18:43.379Z,28.63
2017-06-03T20:21:20.923Z,26.40
2017-06-03T20:23:52.142Z,28.85
2017-06-03T20:26:19.717Z,27.30
2017-06-03T20:28:47.282Z,27.97
2017-06-03T20:31:14.954Z,28.00
2017-06-03T20:33:42.721Z,26.80
2017-06-03T20:36:10.327Z,27.37
2017-06-03T20:38:38.899Z,26.60
2017-06-03T20:41:06.644Z,27.55
2017-06-03T20:49:17.183Z,25.73
2017-06-03T20:51:45.613Z,30.70
2017-06-03T20:54:13.177Z,28.80
2017-06-03T20:56:41.415Z,30.33
2017-06-03T20:59:12.054Z,28.87
2017-06-03T21:01:39.674Z,27.85
2017-06-03T21:04:07.631Z,26.85
2017-06-03T21:06:35.194Z,29.15
2017-06-03T21:09:02.802Z,30.35
2017-06-03T21:11:30.417Z,31.92
2017-06-03T21:13:58.109Z,29.85
2017-06-03T21:16:28.258Z,28.33
2017-06-03T21:18:55.906Z,30.02
2017-06-03T21:21:25.330Z,33.10
2017-06-03T21:23:54.306Z,29.48
2017-06-03T21:26:25.177Z,32.70
2017-06-03T21:28:56.271Z,32.35
2017-06-03T21:31:26.170Z,32.22
2017-06-03T21:33:59.510Z,32.83
2017-06-03T21:36:30.693Z,32.45
2017-06-03T21:39:02.055Z,33.05
2017-06-03T21:41:29.650Z,42.33
2017-06-03T21:44:03.853Z,34.88
2017-06-03T21:46:37.451Z,35.65
2017-06-03T21:49:05.405Z,36.83
2017-06-03T21:51:34.291Z,34.60
2017-06-03T21:57:00.310Z,32.53
2017-06-03T21:59:28.069Z,32.20
2017-06-03T22:04:56.739Z,30.27
2017-06-03T22:07:28.137Z,28.58
2017-06-03T22:09:58.764Z,28.77
2017-06-03T22:12:27.933Z,32.25
2017-06-03T22:17:51.361Z,31.85
2017-06-03T22:20:22.025Z,32.90
2017-06-03T22:22:52.984Z,32.70
2017-06-03T22:25:21.918Z,33.22
2017-06-03T22:27:53.059Z,34.38
2017-06-03T22:30:23.586Z,35.65
2017-06-03T22:32:54.745Z,35.90
2017-06-03T22:35:25.222Z,34.08
2017-06-03T22:37:54.082Z,35.90
2017-06-03T22:40:23.150Z,37.83
2017-06-03T22:42:53.785Z,37.08
2017-06-03T22:45:27.558Z,37.15
2017-06-03T22:47:58.227Z,36.88
2017-06-03T22:50:32.382Z,37.00
2017-06-03T22:53:17.137Z,38.13
2017-06-03T22:55:48.821Z,39.45
2017-06-03T22:58:19.473Z,40.58
2017-06-03T23:00:51.097Z,39.42
2017-06-03T23:03:22.370Z,38.33
2017-06-03T23:05:53.289Z,39.13
2017-06-03T23:08:24.342Z,40.72
2017-06-03T23:10:54.962Z,40.95
2017-06-03T23:13:25.917Z,43.80
2017-06-03T23:15:54.742Z,43.42
2017-06-03T23:18:25.768Z,42.75
2017-06-03T23:21:01.663Z,46.92
2017-06-03T23:23:32.334Z,46.85
2017-06-03T23:26:03.379Z,46.53
2017-06-03T23:28:34.165Z,46.55
2017-06-03T23:31:08.315Z,49.65
2017-06-03T23:33:38.829Z,50.65
2017-06-03T23:36:09.797Z,47.30
2017-06-03T23:38:40.482Z,49.55
2017-06-03T23:41:11.669Z,49.13
2017-06-03T23:43:40.394Z,48.05
2017-06-03T23:46:09.262Z,46.30
2017-06-03T23:48:40.422Z,48.85
2017-06-03T23:51:11.757Z,47.60
2017-06-03T23:53:42.570Z,48.70
2017-06-03T23:56:13.346Z,48.75
2017-06-03T23:58:43.057Z,49.00
